Time;durP1;ratioP1;P1;durP2;ratioP2;P2;SDS_P1;SDS_P2;PMS_P1;PMS_P2;Temp;Humidity;BMP_temperature;BMP_pressure;BME280_temperature;BME280_humidity;BME280_pressure;Samples;Min_cycle;Max_cycle;Signal;HPM_P1;HPM_P2
2022/09/15 00:01:46;;;;;;;34.45;18.52;;;;;;;11.61;100.00;100707.84;5039414;28;20025;-72
2022/09/15 00:04:12;;;;;;;34.47;18.42;;;;;;;11.60;100.00;100706.13;5038479;28;20484;-72
2022/09/15 00:06:37;;;;;;;30.13;17.38;;;;;;;11.56;100.00;100701.91;5039009;28;20029;-72
2022/09/15 00:09:03;;;;;;;30.88;17.30;;;;;;;11.60;100.00;100706.13;5039197;28;20473;-72
2022/09/15 00:11:34;;;;;;;31.13;17.45;;;;;;;11.58;100.00;100707.94;5038500;28;20481;-72
2022/09/15 00:14:02;;;;;;;31.15;17.67;;;;;;;11.59;100.00;100705.28;5039148;28;20056;-73
2022/09/15 00:16:29;;;;;;;30.85;18.05;;;;;;;11.61;100.00;100707.84;5038832;28;20485;-72
2022/09/15 00:18:56;;;;;;;36.63;18.23;;;;;;;11.55;100.00;100715.88;5038400;28;20029;-72
2022/09/15 00:21:25;;;;;;;34.95;17.50;;;;;;;11.54;100.00;100708.91;5038956;28;20025;-72
2022/09/15 00:23:51;;;;;;;33.15;17.52;;;;;;;11.53;100.00;100715.03;5039115;28;20033;-72
2022/09/15 00:26:20;;;;;;;36.42;17.20;;;;;;;11.51;100.00;100715.09;5038507;28;20044;-72
2022/09/15 00:28:46;;;;;;;32.97;18.05;;;;;;;11.47;100.00;100705.63;5039009;28;20568;-72
2022/09/15 00:31:14;;;;;;;34.45;18.17;;;;;;;11.45;100.00;100705.69;5039047;28;20037;-72
2022/09/15 00:33:40;;;;;;;39.15;19.20;;;;;;;11.46;100.00;100693.47;5037979;28;20540;-72
2022/09/15 00:36:08;;;;;;;34.75;18.85;;;;;;;11.46;100.00;100696.09;5038943;28;20120;-72
2022/09/15 00:38:34;;;;;;;34.85;19.15;;;;;;;11.50;100.00;100687.25;5038609;28;20472;-72
2022/09/15 00:41:01;;;;;;;35.95;18.85;;;;;;;11.53;100.00;100681.94;5038383;28;20025;-72
2022/09/15 00:43:49;;;;;;;37.58;19.52;;;;;;;11.63;100.00;100695.59;5038490;28;20392;-72
2022/09/15 00:46:18;;;;;;;37.60;19.30;;;;;;;11.70;100.00;100691.88;5038222;28;20029;-72
2022/09/15 00:49:12;;;;;;;38.53;20.00;;;;;;;11.64;100.00;100682.50;5038441;28;20451;-72
2022/09/15 00:52:05;;;;;;;34.53;19.05;;;;;;;11.79;100.00;100703.81;5032753;28;20111;-72
2022/09/15 00:54:57;;;;;;;43.47;20.20;;;;;;;11.76;100.00;100696.06;5037835;28;20464;-72
2022/09/15 00:57:28;;;;;;;44.22;20.80;;;;;;;11.84;100.00;100700.22;5038550;28;20495;-72
2022/09/15 00:59:56;;;;;;;40.25;20.48;;;;;;;11.87;100.00;100694.88;5038713;28;20473;-72
2022/09/15 01:02:25;;;;;;;39.10;20.17;;;;;;;11.90;100.00;100699.13;5037807;28;20473;-72
2022/09/15 01:04:51;;;;;;;41.03;19.95;;;;;;;11.92;100.00;100710.41;5038805;28;20120;-72
2022/09/15 01:07:26;;;;;;;40.67;20.85;;;;;;;11.95;100.00;100703.31;5037900;28;20064;-73
2022/09/15 01:10:05;;;;;;;40.78;21.80;;;;;;;11.98;100.00;100702.38;5035414;28;20032;-72
2022/09/15 01:12:31;;;;;;;51.28;22.38;;;;;;;11.95;100.00;100700.72;5035560;28;20104;-72
2022/09/15 01:15:00;;;;;;;43.67;22.20;;;;;;;11.97;100.00;100700.69;5034784;28;20477;-72
2022/09/15 01:17:54;;;;;;;43.17;21.10;;;;;;;11.99;100.00;100696.25;5035239;28;20120;-72
2022/09/15 01:20:46;;;;;;;38.88;21.48;;;;;;;11.98;100.00;100696.31;5035744;28;20033;-72
2022/09/15 01:23:27;;;;;;;42.45;21.98;;;;;;;12.00;100.00;100694.47;5034742;28;20092;-72
2022/09/15 01:26:08;;;;;;;38.50;21.00;;;;;;;12.04;100.00;100690.88;5035491;28;20029;-72
2022/09/15 01:28:54;;;;;;;43.05;22.45;;;;;;;12.04;100.00;100696.13;5034551;28;20025;-72
2022/09/15 01:31:35;;;;;;;43.42;23.23;;;;;;;12.05;100.00;100693.44;5035351;28;20116;-72
2022/09/15 01:34:14;;;;;;;43.10;23.13;;;;;;;12.09;100.00;100688.97;5035195;28;20076;-72
2022/09/15 01:37:04;;;;;;;47.60;23.73;;;;;;;12.11;100.00;100692.41;5034101;28;20026;-72
2022/09/15 01:39:38;;;;;;;44.13;22.85;;;;;;;12.13;100.00;100690.56;5035033;28;20021;-72
2022/09/15 01:42:07;;;;;;;48.22;23.38;;;;;;;12.09;100.00;100688.97;5034668;28;20124;-72
2022/09/15 01:44:40;;;;;;;44.45;23.52;;;;;;;12.07;100.00;100696.03;5034031;28;20035;-72
2022/09/15 01:47:09;;;;;;;39.58;22.38;;;;;;;12.02;100.00;100697.91;5034889;28;20041;-72
2022/09/15 01:49:47;;;;;;;42.75;23.65;;;;;;;11.93;100.00;100694.69;5033797;28;20041;-72
2022/09/15 01:52:16;;;;;;;38.28;22.15;;;;;;;11.83;100.00;100690.59;5034762;28;20044;-72
2022/09/15 01:54:47;;;;;;;36.58;22.02;;;;;;;11.80;100.00;100695.91;5034664;28;20048;-72
2022/09/15 01:57:16;;;;;;;41.72;21.92;;;;;;;11.72;100.00;100695.31;5034122;28;20103;-72
2022/09/15 01:59:42;;;;;;;41.80;22.70;;;;;;;11.68;100.00;100699.78;5034364;28;20034;-72
2022/09/15 02:02:13;;;;;;;39.13;21.92;;;;;;;11.57;100.00;100690.53;5034782;28;20029;-72
2022/09/15 02:04:38;;;;;;;39.17;24.33;;;;;;;11.54;100.00;100701.09;5033579;28;20124;-72
2022/09/15 02:07:22;;;;;;;37.37;21.57;;;;;;;11.49;100.00;100696.84;5034462;28;20116;-72
2022/09/15 02:10:04;;;;;;;36.45;22.45;;;;;;;11.49;100.00;100688.19;5034469;28;20279;-72
2022/09/15 02:12:37;;;;;;;39.70;22.88;;;;;;;11.54;100.00;100695.84;5033583;28;20025;-72
2022/09/15 02:15:10;;;;;;;39.22;23.15;;;;;;;11.59;100.00;100691.38;5034571;28;20045;-72
2022/09/15 02:17:52;;;;;;;41.03;22.98;;;;;;;11.62;100.00;100693.88;5033757;28;20027;-72
2022/09/15 02:20:37;;;;;;;47.47;24.52;;;;;;;11.68;100.00;100693.72;5034122;28;20109;-72
2022/09/15 02:23:23;;;;;;;48.75;25.50;;;;;;;11.70;100.00;100692.72;5034588;28;20122;-72
2022/09/15 02:25:55;;;;;;;46.45;24.88;;;;;;;11.72;100.00;100695.31;5033642;28;20100;-72
2022/09/15 02:28:28;;;;;;;49.17;26.17;;;;;;;11.68;100.00;100693.72;5034032;28;20045;-72
2022/09/15 02:30:57;;;;;;;45.88;24.80;;;;;;;11.60;100.00;100680.00;5034037;28;20034;-72
2022/09/15 02:33:27;;;;;;;44.20;25.27;;;;;;;11.60;100.00;100693.91;5033069;28;20044;-72
2022/09/15 02:35:53;;;;;;;46.63;24.42;;;;;;;11.59;100.00;100683.53;5034078;28;20112;-72
2022/09/15 02:38:19;;;;;;;43.65;24.85;;;;;;;11.58;100.00;100687.91;5033975;28;20173;-72
2022/09/15 02:40:45;;;;;;;48.13;27.13;;;;;;;11.54;100.00;100685.41;5032801;28;20028;-73
2022/09/15 02:43:14;;;;;;;41.47;24.00;;;;;;;11.49;100.00;100694.25;5033828;28;20033;-72
2022/09/15 02:45:39;;;;;;;41.70;23.95;;;;;;;11.42;100.00;100697.09;5033867;28;20033;-72
2022/09/15 02:48:07;;;;;;;38.85;24.25;;;;;;;11.36;100.00;100700.72;5033059;28;20021;-72
2022/09/15 02:50:33;;;;;;;38.67;24.00;;;;;;;11.34;100.00;100701.66;5033287;28;20050;-72
2022/09/15 02:52:58;;;;;;;41.42;24.70;;;;;;;11.29;100.00;100693.97;5032874;28;20492;-72
2022/09/15 02:55:26;;;;;;;39.47;23.42;;;;;;;11.28;100.00;100694.00;5033319;28;20028;-72
2022/09/15 02:57:51;;;;;;;38.65;23.70;;;;;;;11.23;100.00;100692.41;5033480;28;20017;-72
2022/09/15 03:00:18;;;;;;;46.40;24.17;;;;;;;11.20;100.00;100691.63;5033207;28;20032;-72
2022/09/15 03:02:46;;;;;;;41.10;23.85;;;;;;;11.15;100.00;100704.81;5033512;28;20092;-72
2022/09/15 03:05:13;;;;;;;38.05;23.98;;;;;;;11.06;100.00;100693.78;5033578;28;20029;-72
2022/09/15 03:07:39;;;;;;;37.95;24.55;;;;;;;11.07;100.00;100705.91;5032366;28;20496;-72
2022/09/15 03:10:06;;;;;;;40.15;25.30;;;;;;;11.05;100.00;100707.69;5033626;28;20053;-72
2022/09/15 03:12:39;;;;;;;40.97;25.67;;;;;;;11.04;100.00;100704.25;5033167;28;20071;-72
2022/09/15 03:15:07;;;;;;;42.35;25.83;;;;;;;11.04;100.00;100706.84;5032782;28;20057;-72
2022/09/15 03:17:37;;;;;;;46.70;25.67;;;;;;;11.04;100.00;100709.47;5032884;28;20034;-72
2022/09/15 03:20:07;;;;;;;40.15;25.42;;;;;;;10.98;100.00;100705.25;5033295;28;20033;-72
2022/09/15 03:22:33;;;;;;;43.20;25.70;;;;;;;10.99;100.00;100719.19;5031968;28;20108;-72
2022/09/15 03:24:58;;;;;;;47.10;26.85;;;;;;;10.97;100.00;100721.81;5033148;28;20029;-72
2022/09/15 03:27:23;;;;;;;48.22;28.05;;;;;;;10.97;100.00;100727.03;5032995;28;20064;-72
2022/09/15 03:29:49;;;;;;;44.15;27.83;;;;;;;11.00;100.00;100715.66;5032536;28;20022;-72
2022/09/15 03:32:14;;;;;;;46.30;27.38;;;;;;;11.05;100.00;100720.75;5032631;28;20048;-72
2022/09/15 03:34:40;;;;;;;48.92;29.00;;;;;;;11.09;100.00;100714.56;5032688;28;20033;-72
2022/09/15 03:37:05;;;;;;;41.90;27.40;;;;;;;11.15;100.00;100716.97;5032331;28;20029;-72
2022/09/15 03:39:31;;;;;;;50.72;29.15;;;;;;;11.21;100.00;100725.50;5032587;28;20075;-72
2022/09/15 03:41:56;;;;;;;51.92;28.70;;;;;;;11.28;100.00;100722.72;5033116;28;20488;-72
2022/09/15 03:44:22;;;;;;;49.05;28.55;;;;;;;11.30;100.00;100724.38;5032043;28;20380;-72
2022/09/15 03:46:47;;;;;;;49.03;29.23;;;;;;;11.33;100.00;100732.13;5032778;28;20021;-72
2022/09/15 03:49:12;;;;;;;48.42;28.27;;;;;;;11.28;100.00;100723.59;5031870;28;20033;-72
2022/09/15 03:51:38;;;;;;;45.15;28.88;;;;;;;11.28;100.00;100720.09;5032613;28;20053;-72
2022/09/15 03:54:07;;;;;;;47.65;27.55;;;;;;;11.27;100.00;100724.47;5032616;28;20045;-72
2022/09/15 03:56:33;;;;;;;47.58;28.38;;;;;;;11.25;100.00;100728.91;5031911;28;20029;-72
2022/09/15 03:59:02;;;;;;;45.28;28.13;;;;;;;11.22;100.00;100726.38;5032846;28;20052;-72
2022/09/15 04:01:31;;;;;;;44.10;28.00;;;;;;;11.19;100.00;100723.84;5032482;28;20120;-72
2022/09/15 04:03:57;;;;;;;49.90;28.83;;;;;;;11.19;100.00;100722.09;5031877;28;20425;-72
2022/09/15 04:06:23;;;;;;;49.22;28.55;;;;;;;11.22;100.00;100726.38;5032433;28;20404;-72
2022/09/15 04:08:49;;;;;;;46.72;27.52;;;;;;;11.19;100.00;100722.09;5032552;28;20396;-72
2022/09/15 04:11:16;;;;;;;51.30;30.35;;;;;;;11.18;100.00;100720.38;5031985;28;20113;-72
2022/09/15 04:13:42;;;;;;;49.55;29.02;;;;;;;11.21;100.00;100722.03;5032361;28;20057;-72
2022/09/15 04:16:18;;;;;;;46.95;29.45;;;;;;;11.20;100.00;100723.78;5032697;28;20055;-72
2022/09/15 04:18:44;;;;;;;47.97;29.23;;;;;;;11.17;100.00;100721.25;5031510;28;20030;-72
2022/09/15 04:21:12;;;;;;;49.35;29.75;;;;;;;11.17;100.00;100733.47;5032380;28;20028;-72
2022/09/15 04:23:38;;;;;;;48.42;29.38;;;;;;;11.12;100.00;100717.09;5032408;28;20032;-72
2022/09/15 04:26:06;;;;;;;49.83;29.25;;;;;;;11.18;100.00;100725.59;5031870;28;20025;-72
2022/09/15 04:28:34;;;;;;;52.50;31.02;;;;;;;11.21;100.00;100727.25;5032102;28;20373;-72
2022/09/15 04:31:06;;;;;;;52.22;30.85;;;;;;;11.25;100.00;100726.28;5032500;28;20458;-72
2022/09/15 04:33:32;;;;;;;52.40;30.00;;;;;;;11.32;100.00;100722.59;5031323;28;20033;-72
2022/09/15 04:36:03;;;;;;;54.88;31.85;;;;;;;11.36;100.00;100723.38;5032575;28;20026;-72
2022/09/15 04:38:28;;;;;;;55.70;31.45;;;;;;;11.40;100.00;100718.00;5031285;28;20025;-72
2022/09/15 04:40:54;;;;;;;65.95;32.00;;;;;;;11.45;100.00;100723.13;5032274;28;20576;-72
2022/09/15 04:43:20;;;;;;;59.08;32.80;;;;;;;11.47;100.00;100727.38;5032399;28;20034;-72
2022/09/15 04:45:45;;;;;;;57.88;33.15;;;;;;;11.51;100.00;100727.28;5034964;28;20025;-72
2022/09/15 04:48:10;;;;;;;57.53;31.52;;;;;;;11.57;100.00;100734.94;5035864;28;20026;-72
2022/09/15 04:50:35;;;;;;;52.72;31.83;;;;;;;11.56;100.00;100728.00;5035566;28;20050;-72
2022/09/15 04:53:01;;;;;;;64.90;33.45;;;;;;;11.59;100.00;100720.09;5035342;28;20381;-72
2022/09/15 04:55:30;;;;;;;58.22;32.60;;;;;;;11.65;100.00;100725.97;5035591;28;20515;-72
2022/09/15 04:57:56;;;;;;;55.20;31.60;;;;;;;11.65;100.00;100725.13;5035986;28;20025;-72
2022/09/15 05:00:22;;;;;;;55.45;31.80;;;;;;;11.67;100.00;100723.31;5034697;28;20103;-72
2022/09/15 05:02:47;;;;;;;56.42;31.83;;;;;;;11.65;100.00;100727.75;5035764;28;20027;-72
2022/09/15 05:05:12;;;;;;;58.35;31.38;;;;;;;11.65;100.00;100725.97;5035925;28;20029;-72
2022/09/15 05:07:38;;;;;;;54.67;29.58;;;;;;;11.61;100.00;100731.34;5034854;28;20116;-72
2022/09/15 05:10:03;;;;;;;56.00;30.85;;;;;;;11.61;100.00;100734.81;5035844;28;20025;-72
2022/09/15 05:12:29;;;;;;;56.45;30.58;;;;;;;11.61;100.00;100719.16;5035449;28;20469;-73
2022/09/15 05:14:54;;;;;;;58.15;30.38;;;;;;;11.62;100.00;100720.84;5034647;28;20087;-72
2022/09/15 05:17:19;;;;;;;51.30;28.10;;;;;;;11.60;100.00;100714.81;5035966;28;20468;-72
2022/09/15 05:19:45;;;;;;;51.70;29.65;;;;;;;11.60;100.00;100717.41;5035401;28;20032;-73
2022/09/15 05:22:13;;;;;;;52.28;29.83;;;;;;;11.60;100.00;100717.41;5034678;28;20033;-72
2022/09/15 05:24:38;;;;;;;55.90;30.55;;;;;;;11.63;100.00;100713.88;5034980;28;20462;-73
2022/09/15 05:27:03;;;;;;;56.38;30.42;;;;;;;11.65;100.00;100712.94;5035330;28;20079;-72
2022/09/15 05:29:29;;;;;;;56.08;30.13;;;;;;;11.67;100.00;100712.88;5034221;28;20025;-72
2022/09/15 05:31:54;;;;;;;55.88;30.15;;;;;;;11.69;100.00;100724.13;5035210;28;20021;-72
2022/09/15 05:34:19;;;;;;;56.17;29.70;;;;;;;11.72;100.00;100724.03;5035425;28;20037;-72
2022/09/15 05:36:44;;;;;;;59.58;31.25;;;;;;;11.77;100.00;100721.28;5034268;28;20466;-72
2022/09/15 05:39:10;;;;;;;62.90;33.03;;;;;;;11.81;100.00;100731.59;5035257;28;20116;-72
2022/09/15 05:41:35;;;;;;;60.53;32.47;;;;;;;11.84;100.00;100731.56;5034065;28;20025;-73
2022/09/15 05:44:01;;;;;;;61.05;32.55;;;;;;;11.86;100.00;100745.41;5034983;28;20049;-73
2022/09/15 05:46:26;;;;;;;56.47;32.28;;;;;;;11.90;100.00;100747.03;5034825;28;20473;-72
2022/09/15 05:48:55;;;;;;;56.50;31.55;;;;;;;11.93;100.00;100752.19;5034306;28;20041;-73
2022/09/15 05:51:20;;;;;;;58.20;32.50;;;;;;;11.97;100.00;100752.06;5034520;28;20072;-73
2022/09/15 05:53:46;;;;;;;60.72;31.10;;;;;;;11.99;100.00;100750.25;5035200;28;20466;-73
2022/09/15 05:56:16;;;;;;;55.20;31.20;;;;;;;12.01;100.00;100751.06;5033603;28;20473;-72
2022/09/15 05:58:44;;;;;;;61.35;32.55;;;;;;;12.06;100.00;100760.47;5034530;28;20496;-72
2022/09/15 06:01:21;;;;;;;65.15;33.60;;;;;;;12.08;100.00;100763.03;5034569;28;20440;-72
2022/09/15 06:03:47;;;;;;;61.85;34.38;;;;;;;12.06;100.00;100768.31;5034056;28;20029;-73
2022/09/15 06:06:13;;;;;;;61.25;33.45;;;;;;;12.08;100.00;100766.50;5034635;28;20056;-72
2022/09/15 06:08:44;;;;;;;62.33;34.55;;;;;;;12.11;100.00;100761.19;5034450;28;20477;-73
2022/09/15 06:11:12;;;;;;;61.80;34.65;;;;;;;12.10;100.00;100761.25;5033897;28;20036;-73
2022/09/15 06:13:39;;;;;;;60.35;34.97;;;;;;;12.12;100.00;100772.50;5033937;28;20381;-72
2022/09/15 06:16:21;;;;;;;57.40;34.42;;;;;;;12.15;100.00;100773.25;5034757;28;20021;-72
2022/09/15 06:18:48;;;;;;;57.60;34.20;;;;;;;12.22;100.00;100773.06;5033517;28;20095;-73
2022/09/15 06:21:16;;;;;;;65.15;35.30;;;;;;;12.26;100.00;100775.56;5034266;28;20477;-72
2022/09/15 06:23:42;;;;;;;62.22;35.33;;;;;;;12.37;100.00;100780.44;5034047;28;20033;-72
2022/09/15 06:26:14;;;;;;;69.18;36.78;;;;;;;12.47;100.00;100783.59;5033441;28;20079;-73
2022/09/15 06:28:43;;;;;;;66.28;36.78;;;;;;;12.58;100.00;100789.34;5034110;28;20033;-72
2022/09/15 06:31:11;;;;;;;65.25;37.53;;;;;;;12.60;100.00;100771.84;5033555;28;20033;-73
2022/09/15 06:33:40;;;;;;;67.43;38.08;;;;;;;12.75;100.00;100794.88;5033768;28;20071;-72
2022/09/15 06:36:06;;;;;;;64.72;37.67;;;;;;;12.83;100.00;100798.09;5034072;28;20027;-72
2022/09/15 06:38:31;;;;;;;60.58;35.90;;;;;;;12.82;100.00;100783.31;5033010;28;20029;-73
2022/09/15 06:40:57;;;;;;;57.20;33.65;;;;;;;12.89;100.00;100800.50;5034069;28;20028;-73
2022/09/15 06:43:24;;;;;;;53.85;33.17;;;;;;;12.89;100.00;100792.66;5033727;28;20025;-73
2022/09/15 06:45:49;;;;;;;50.42;32.05;;;;;;;12.86;100.00;100798.00;5033292;28;20017;-73
2022/09/15 06:48:15;;;;;;;47.85;30.30;;;;;;;12.87;100.00;100798.84;5033804;28;20393;-72
2022/09/15 06:50:40;;;;;;;51.88;31.98;;;;;;;12.85;100.00;100795.41;5033338;28;20076;-72
2022/09/15 06:53:05;;;;;;;47.33;30.63;;;;;;;12.84;100.00;100799.78;5032915;28;20393;-72
2022/09/15 06:55:30;;;;;;;48.70;31.02;;;;;;;12.89;100.00;100808.34;5033279;28;20044;-73
2022/09/15 06:57:56;;;;;;;47.95;31.33;;;;;;;12.94;100.00;100800.34;5033745;28;20492;-73
2022/09/15 07:00:21;;;;;;;60.45;33.30;;;;;;;13.08;100.00;100810.34;5032662;28;20473;-73
2022/09/15 07:02:49;;;;;;;49.08;33.25;;;;;;;13.14;100.00;100810.13;5033577;28;20029;-72
2022/09/15 07:05:15;;;;;;;47.22;32.38;;;;;;;13.21;100.00;100822.09;5033516;28;20022;-72
2022/09/15 07:07:41;;;;;;;49.55;32.47;;;;;;;13.30;100.00;100820.94;5031541;28;20496;-73
2022/09/15 07:10:06;;;;;;;49.53;32.78;;;;;;;13.39;100.00;100822.41;5033531;28;20384;-73
2022/09/15 07:12:32;;;;;;;45.42;30.75;;;;;;;13.43;100.00;100816.13;5033167;28;20077;-73
2022/09/15 07:14:57;;;;;;;39.38;28.88;;;;;;;13.52;100.00;100823.66;5032603;28;20452;-73
2022/09/15 07:17:22;;;;;;;46.78;30.52;;;;;;;13.59;100.00;100819.91;5033174;28;20063;-73
2022/09/15 07:19:48;;;;;;;40.50;28.75;;;;;;;13.70;100.00;100825.63;5033264;28;20112;-73
2022/09/15 07:22:13;;;;;;;41.88;27.73;;;;;;;13.82;100.00;100826.94;5032522;28;20025;-72
2022/09/15 07:24:38;;;;;;;35.72;25.48;;;;;;;13.96;100.00;100834.25;5033212;28;20025;-72
2022/09/15 07:27:04;;;;;;;32.13;24.52;;;;;;;14.09;100.00;100834.66;5032647;28;20025;-73
2022/09/15 07:29:29;;;;;;;32.58;24.40;;;;;;;14.17;100.00;100827.38;5032788;28;20079;-73
2022/09/15 07:31:54;;;;;;;33.15;23.35;;;;;;;14.26;100.00;100830.50;5033153;28;20109;-73
2022/09/15 07:34:19;;;;;;;30.55;23.00;;;;;;;14.23;100.00;100833.22;5032094;28;20033;-73
2022/09/15 07:36:45;;;;;;;28.98;22.38;;;;;;;14.31;100.00;100832.91;5032705;28;20022;-72
2022/09/15 07:39:10;;;;;;;28.63;21.48;;;;;;;14.37;100.00;100831.84;5032837;28;20026;-73
2022/09/15 07:41:35;;;;;;;27.10;19.17;;;;;;;14.38;100.00;100830.91;5032058;28;20092;-73
2022/09/15 07:44:01;;;;;;;25.70;19.83;;;;;;;14.47;100.00;100830.56;5033098;28;20022;-73
2022/09/15 07:46:30;;;;;;;27.45;20.92;;;;;;;14.54;100.00;100832.03;5032709;28;20018;-73
2022/09/15 07:48:55;;;;;;;28.98;20.85;;;;;;;14.65;100.00;100832.50;5032098;28;20075;-73
2022/09/15 07:51:21;;;;;;;30.65;22.30;;;;;;;14.80;100.00;100836.25;5032500;28;20050;-72
2022/09/15 07:53:47;;;;;;;26.42;20.83;;;;;;;14.84;100.00;100837.81;5032774;28;20025;-73
2022/09/15 07:56:13;;;;;;;26.10;19.70;;;;;;;14.83;100.00;100837.88;5032015;28;20029;-73
2022/09/15 07:58:39;;;;;;;28.90;20.85;;;;;;;14.80;100.00;100845.88;5032583;28;20047;-73
2022/09/15 08:01:06;;;;;;;26.10;18.83;;;;;;;14.78;100.00;100847.72;5032988;28;20036;-72
2022/09/15 08:03:32;;;;;;;29.45;20.38;;;;;;;14.86;100.00;100859.63;5031749;28;20167;-73
2022/09/15 08:05:58;;;;;;;25.67;19.58;;;;;;;15.01;100.00;100842.38;5032652;28;20520;-73
2022/09/15 08:08:24;;;;;;;25.02;18.83;;;;;;;15.12;100.00;100849.81;5032371;28;20025;-73
2022/09/15 08:10:49;;;;;;;28.40;21.45;;;;;;;15.16;100.00;100839.09;5032122;28;20025;-73
2022/09/15 08:13:14;;;;;;;23.05;17.90;;;;;;;15.25;100.00;100855.41;5033064;28;20029;-73
2022/09/15 08:15:40;;;;;;;21.27;14.40;;;;;;;15.26;100.00;100857.94;5032481;28;20512;-73
2022/09/15 08:18:05;;;;;;;19.75;14.70;;;;;;;15.28;100.00;100857.91;5032958;28;20079;-73
2022/09/15 08:20:32;;;;;;;16.52;13.32;;;;;;;15.23;100.00;100851.03;5036333;28;20120;-73
2022/09/15 08:22:57;;;;;;;19.98;13.43;;;;;;;15.30;100.00;100859.50;5036607;28;20022;-73
2022/09/15 08:25:23;;;;;;;19.45;13.63;;;;;;;15.38;100.00;100856.56;5035787;28;20033;-73
2022/09/15 08:27:48;;;;;;;21.15;13.73;;;;;;;15.54;100.00;100868.13;5036397;28;20021;-72
2022/09/15 08:30:13;;;;;;;19.75;14.13;;;;;;;15.65;100.00;100865.88;5036501;28;20025;-73
2022/09/15 08:32:39;;;;;;;17.63;13.85;;;;;;;15.73;100.00;100872.59;5035437;28;20053;-73
2022/09/15 08:35:05;;;;;;;20.77;15.02;;;;;;;15.64;100.00;100879.09;5036353;28;20051;-73
2022/09/15 08:37:30;;;;;;;19.40;14.82;;;;;;;15.54;100.00;100888.28;5035390;28;20025;-73
2022/09/15 08:39:55;;;;;;;24.52;14.65;;;;;;;15.42;100.00;100882.63;5036471;28;20385;-73
2022/09/15 08:42:22;;;;;;;19.85;14.85;;;;;;;15.34;100.00;100884.75;5036236;28;20028;-73
2022/09/15 08:45:06;;;;;;;20.65;14.52;;;;;;;15.28;100.00;100879.75;5035383;28;20461;-73
2022/09/15 08:47:39;;;;;;;23.65;14.77;;;;;;;15.33;100.00;100892.69;5035903;28;20036;-73
2022/09/15 08:50:33;;;;;;;20.55;15.20;;;;;;;15.42;100.00;100889.66;5035812;28;20124;-73
2022/09/15 08:53:10;;;;;;;22.23;15.95;;;;;;;15.39;100.00;100884.53;5035192;28;20033;-73
2022/09/15 08:55:52;;;;;;;22.30;15.65;;;;;;;15.42;100.00;100890.50;5035659;28;20557;-73
2022/09/15 08:58:23;;;;;;;23.77;16.05;;;;;;;15.39;100.00;100888.03;5035883;28;20029;-73
2022/09/15 09:00:55;;;;;;;23.42;15.27;;;;;;;15.47;100.00;100892.97;5035213;28;20030;-73
2022/09/15 09:03:38;;;;;;;17.95;13.68;;;;;;;15.65;100.00;100893.94;5035667;28;20030;-73
2022/09/15 09:06:17;;;;;;;19.25;14.82;;;;;;;15.82;100.00;100898.47;5035367;28;20052;-73
2022/09/15 09:09:00;;;;;;;20.52;14.10;;;;;;;15.96;100.00;100905.72;5035706;28;20147;-73
2022/09/15 09:11:57;;;;;;;20.42;14.40;;;;;;;16.18;100.00;100916.16;5035480;28;20044;-73
2022/09/15 09:14:35;;;;;;;18.10;13.60;;;;;;;16.24;100.00;100910.59;5001180;28;20048;-74
2022/09/15 09:17:10;;;;;;;18.40;13.57;;;;;;;16.44;100.00;100913.16;5035617;28;20022;-73
2022/09/15 09:19:54;;;;;;;18.98;12.63;;;;;;;16.72;100.00;100922.41;5035057;28;20022;-73
2022/09/15 09:22:23;;;;;;;;;;;;;;;16.89;100.00;100919.00;5036127;28;20029;-73
2022/09/15 09:24:55;;;;;;;17.80;10.18;;;;;;;16.97;100.00;100914.19;5035573;28;19913;-73
2022/09/15 09:27:25;;;;;;;11.82;9.00;;;;;;;17.07;100.00;100918.09;5034352;28;20029;-73
2022/09/15 09:30:00;;;;;;;14.85;10.18;;;;;;;17.13;100.00;100914.28;5034699;28;20036;-76
2022/09/15 09:32:34;;;;;;;12.68;8.70;;;;;;;17.08;100.00;100907.47;5035131;28;20504;-76
2022/09/15 09:35:03;;;;;;;13.05;8.15;;;;;;;16.97;100.00;100908.91;5034689;28;20080;-73
2022/09/15 09:37:29;;;;;;;13.30;8.85;;;;;;;17.00;100.00;100917.56;5035165;28;20025;-72
2022/09/15 09:39:55;;;;;;;11.07;8.95;;;;;;;16.97;100.00;100915.06;5035002;28;20026;-73
2022/09/15 09:42:27;;;;;;;10.30;8.23;;;;;;;16.88;100.00;100915.50;5034307;28;20519;-73
2022/09/15 09:44:52;;;;;;;11.90;9.05;;;;;;;16.71;100.00;100918.94;5034985;28;20039;-73
2022/09/15 09:47:19;;;;;;;14.80;8.63;;;;;;;16.47;100.00;100918.28;5034897;28;20107;-73
2022/09/15 09:49:47;;;;;;;13.38;8.20;;;;;;;16.27;100.00;100918.38;5033805;28;20050;-72
2022/09/15 09:52:13;;;;;;;11.38;7.43;;;;;;;16.08;100.00;100920.97;5034750;28;20466;-73
2022/09/15 09:54:38;;;;;;;11.95;7.63;;;;;;;15.97;100.00;100924.09;5034326;28;20096;-73
2022/09/15 09:57:20;;;;;;;11.65;9.07;;;;;;;15.87;100.00;100922.78;5034316;28;20112;-73
2022/09/15 09:59:48;;;;;;;12.45;8.13;;;;;;;15.76;100.00;100914.50;5034711;28;20470;-72
2022/09/15 10:02:17;;;;;;;12.73;8.43;;;;;;;15.66;100.00;100919.28;5033836;28;20025;-73
2022/09/15 10:04:52;;;;;;;14.65;9.05;;;;;;;15.60;100.00;100903.81;5034206;28;20516;-73
2022/09/15 10:07:24;;;;;;;14.90;10.23;;;;;;;15.60;100.00;100914.31;5034900;28;20090;-73
2022/09/15 10:09:53;;;;;;;15.53;11.23;;;;;;;15.52;100.00;100921.66;5034127;28;20052;-73
2022/09/15 10:12:23;;;;;;;16.58;11.05;;;;;;;15.46;100.00;100922.75;5034770;28;20045;-73
2022/09/15 10:14:54;;;;;;;19.85;11.57;;;;;;;15.36;100.00;100922.28;5034433;28;20036;-72
2022/09/15 10:17:34;;;;;;;14.75;11.80;;;;;;;15.38;100.00;100924.88;5033751;28;20025;-73
2022/09/15 10:20:00;;;;;;;13.38;9.32;;;;;;;15.33;100.00;100921.56;5034453;28;20068;-73
2022/09/15 10:22:38;;;;;;;14.95;7.78;;;;;;;15.38;100.00;100938.00;5034181;28;20101;-73
2022/09/15 10:25:19;;;;;;;13.38;7.63;;;;;;;15.26;100.00;100931.47;5032408;28;20048;-73
2022/09/15 10:28:01;;;;;;;10.38;7.18;;;;;;;15.20;100.00;100922.09;5033890;28;20033;-73
2022/09/15 10:30:26;;;;;;;13.77;7.45;;;;;;;15.23;100.00;100927.19;5033306;28;20072;-72
2022/09/15 10:32:52;;;;;;;10.48;6.57;;;;;;;15.32;100.00;100920.72;5034398;28;20507;-72
2022/09/15 10:35:19;;;;;;;11.48;6.38;;;;;;;15.47;100.00;100921.88;5034033;28;20511;-72
2022/09/15 10:38:10;;;;;;;9.80;5.35;;;;;;;15.59;100.00;100921.31;5032933;28;20037;-73
2022/09/15 10:40:46;;;;;;;9.52;4.47;;;;;;;15.66;100.00;100922.81;5033870;28;20116;-72
2022/09/15 10:43:31;;;;;;;8.32;4.50;;;;;;;15.77;100.00;100930.22;5033843;28;20029;-73
2022/09/15 10:46:12;;;;;;;6.47;4.53;;;;;;;16.00;100.00;100923.94;5033310;28;20041;-73
2022/09/15 10:49:02;;;;;;;8.85;3.50;;;;;;;16.22;100.00;100934.38;5033496;28;20033;-73
2022/09/15 10:51:36;;;;;;;6.93;3.50;;;;;;;16.24;100.00;100932.50;5032694;28;20103;-73
2022/09/15 10:54:34;;;;;;;7.75;3.45;;;;;;;16.45;100.00;100919.28;5033720;28;20037;-72
2022/09/15 10:57:21;;;;;;;6.22;3.15;;;;;;;17.02;100.00;100934.13;5033557;28;20025;-73
2022/09/15 11:00:11;;;;;;;3.63;2.13;;;;;;;17.07;100.00;100926.00;5033084;28;20108;-73
2022/09/15 11:02:47;;;;;;;9.80;2.85;;;;;;;17.02;100.00;100936.75;5033509;28;20026;-73
2022/09/15 11:05:29;;;;;;;5.18;2.30;;;;;;;17.14;100.00;100934.47;5032742;28;20167;-73
2022/09/15 11:08:10;;;;;;;4.40;2.38;;;;;;;17.23;100.00;100939.25;5033476;28;20456;-73
2022/09/15 11:10:58;;;;;;;6.20;2.17;;;;;;;17.54;100.00;100938.56;5033208;28;20026;-73
2022/09/15 11:13:55;;;;;;;6.95;2.20;;;;;;;17.91;100.00;100941.97;5032080;28;20036;-73
2022/09/15 11:16:36;;;;;;;4.88;1.70;;;;;;;18.29;98.59;100939.09;5009647;28;20041;-73
2022/09/15 11:19:20;;;;;;;4.57;1.40;;;;;;;18.33;95.70;100940.63;5033415;28;20104;-73